createdAt,value
2022-10-05T00:02:21.543Z,73.20
2022-10-05T00:04:51.787Z,74.20
2022-10-05T00:07:23.105Z,74.62
2022-10-05T00:09:56.732Z,76.75
2022-10-05T00:12:25.050Z,76.88
2022-10-05T00:14:57.422Z,77.63
2022-10-05T00:17:27.268Z,76.94
2022-10-05T00:19:54.560Z,76.44
2022-10-05T00:22:39.547Z,76.13
2022-10-05T00:25:16.935Z,75.77
2022-10-05T00:27:46.123Z,75.62
2022-10-05T00:30:18.756Z,75.61
2022-10-05T00:32:46.289Z,75.77
2022-10-05T00:35:14.764Z,75.51
2022-10-05T00:37:42.138Z,74.85
2022-10-05T00:40:24.304Z,74.99
2022-10-05T00:43:20.174Z,74.30
2022-10-05T00:46:05.809Z,74.43
2022-10-05T00:48:45.918Z,74.46
2022-10-05T00:51:36.629Z,73.71
2022-10-05T00:54:26.262Z,74.27
2022-10-05T00:57:31.673Z,73.65
2022-10-05T01:00:08.965Z,73.61
2022-10-05T01:02:56.995Z,73.40
2022-10-05T01:05:47.746Z,73.22
2022-10-05T01:08:20.544Z,73.04
2022-10-05T01:11:08.456Z,73.25
2022-10-05T01:13:53.796Z,73.26
2022-10-05T01:16:41.631Z,73.19
2022-10-05T01:19:29.873Z,73.79
2022-10-05T01:22:24.980Z,74.35
2022-10-05T01:25:16.562Z,74.04
2022-10-05T01:27:49.388Z,73.95
2022-10-05T01:30:19.128Z,73.44
2022-10-05T01:33:17.919Z,73.76
2022-10-05T01:35:58.994Z,73.58
2022-10-05T01:38:36.137Z,73.23
2022-10-05T01:41:16.824Z,72.71
2022-10-05T01:43:53.942Z,72.58
2022-10-05T01:46:43.537Z,72.72
2022-10-05T01:49:24.205Z,72.37
2022-10-05T01:52:05.760Z,72.10
2022-10-05T01:54:39.496Z,71.51
2022-10-05T01:57:40.064Z,71.94
2022-10-05T02:00:19.395Z,71.65
2022-10-05T02:02:50.779Z,71.40
2022-10-05T02:05:29.194Z,71.19
2022-10-05T02:08:01.732Z,71.08
2022-10-05T02:10:36.903Z,71.61
2022-10-05T02:13:12.742Z,71.85
2022-10-05T02:15:53.096Z,71.51
2022-10-05T02:18:24.032Z,71.04
2022-10-05T02:20:54.923Z,71.31
2022-10-05T02:23:25.601Z,71.23
2022-10-05T02:25:54.490Z,71.09
2022-10-05T02:28:34.995Z,71.21
2022-10-05T02:31:10.365Z,71.88
2022-10-05T02:33:37.876Z,71.89
2022-10-05T02:36:14.062Z,72.16
2022-10-05T02:38:58.724Z,71.66
2022-10-05T02:41:55.297Z,71.54
2022-10-05T02:44:31.221Z,72.20
2022-10-05T02:47:27.386Z,73.36
2022-10-05T02:50:03.238Z,74.21
2022-10-05T02:53:03.580Z,75.72
2022-10-05T02:55:59.684Z,75.43
2022-10-05T02:58:38.920Z,76.00
2022-10-05T03:01:24.699Z,75.03
2022-10-05T03:03:54.895Z,74.74
2022-10-05T03:06:27.305Z,75.28
2022-10-05T03:09:01.744Z,75.90
2022-10-05T03:11:58.039Z,75.67
2022-10-05T03:14:41.408Z,76.13
2022-10-05T03:17:29.373Z,76.33
2022-10-05T03:20:39.576Z,76.00
2022-10-05T03:23:18.244Z,75.38
2022-10-05T03:26:21.296Z,75.42
2022-10-05T03:29:03.246Z,75.36
2022-10-05T03:31:54.095Z,75.60
2022-10-05T03:34:32.965Z,76.51
2022-10-05T03:37:26.446Z,77.22
2022-10-05T03:40:27.673Z,77.25
2022-10-05T03:43:12.265Z,76.35
2022-10-05T03:46:05.356Z,76.20
2022-10-05T03:48:55.450Z,76.79
2022-10-05T03:51:32.804Z,76.62
2022-10-05T03:54:11.764Z,75.68
2022-10-05T03:56:44.560Z,75.54
2022-10-05T03:59:14.576Z,74.80
2022-10-05T04:01:57.938Z,74.56
2022-10-05T04:04:34.971Z,75.08
2022-10-05T04:07:02.488Z,74.72
2022-10-05T04:09:40.762Z,75.01
2022-10-05T04:12:25.855Z,74.55
2022-10-05T04:15:00.481Z,74.45
2022-10-05T04:17:36.790Z,74.83
2022-10-05T04:20:09.326Z,76.19
2022-10-05T04:22:45.592Z,76.25
2022-10-05T04:25:17.958Z,76.16
2022-10-05T04:28:20.411Z,75.77
2022-10-05T04:30:51.283Z,76.52
2022-10-05T04:33:18.396Z,77.87
2022-10-05T04:35:48.634Z,78.21
2022-10-05T04:38:40.416Z,78.38
2022-10-05T04:41:29.892Z,78.18
2022-10-05T04:44:20.384Z,78.44
2022-10-05T04:47:19.005Z,78.54
2022-10-05T04:49:55.126Z,78.10
2022-10-05T04:52:50.200Z,79.05
2022-10-05T04:55:48.032Z,78.41
2022-10-05T04:58:33.796Z,77.67
2022-10-05T05:01:21.672Z,77.53
2022-10-05T05:04:13.526Z,77.65
2022-10-05T05:06:59.000Z,78.04
2022-10-05T05:09:50.125Z,79.46
2022-10-05T05:12:40.639Z,78.51
2022-10-05T05:15:07.491Z,78.24
2022-10-05T05:18:12.769Z,78.51
2022-10-05T05:20:49.056Z,78.47
2022-10-05T05:23:42.477Z,78.61
2022-10-05T05:26:38.789Z,78.78
2022-10-05T05:29:25.143Z,79.05
2022-10-05T05:32:05.659Z,79.71
2022-10-05T05:34:54.826Z,79.12
2022-10-05T05:37:34.266Z,78.32
2022-10-05T05:40:10.162Z,78.19
2022-10-05T05:42:49.507Z,77.49
2022-10-05T05:45:22.541Z,77.19
2022-10-05T05:47:53.688Z,77.33
2022-10-05T05:50:57.193Z,77.15
2022-10-05T05:53:35.186Z,76.66
2022-10-05T05:56:11.328Z,76.91
2022-10-05T05:58:57.055Z,76.78
2022-10-05T06:01:47.508Z,77.80
2022-10-05T06:04:32.773Z,79.42
2022-10-05T06:07:03.321Z,79.58
2022-10-05T06:09:43.021Z,79.64
2022-10-05T06:12:48.201Z,80.17
2022-10-05T06:15:49.617Z,80.37
2022-10-05T06:18:21.199Z,80.56
2022-10-05T06:21:08.836Z,80.35
2022-10-05T06:23:38.957Z,79.89
2022-10-05T06:26:18.053Z,81.11
2022-10-05T06:28:52.429Z,81.48
2022-10-05T06:31:26.683Z,82.14
2022-10-05T06:34:37.746Z,82.85
2022-10-05T06:37:13.790Z,82.09
2022-10-05T06:40:12.025Z,84.37
2022-10-05T06:42:44.631Z,84.04
2022-10-05T06:45:28.186Z,84.36
2022-10-05T06:48:16.604Z,83.19
2022-10-05T06:51:20.539Z,82.84
2022-10-05T06:54:35.801Z,83.08
2022-10-05T06:57:34.105Z,83.53
2022-10-05T07:00:14.587Z,84.32
2022-10-05T07:03:06.072Z,83.93
2022-10-05T07:05:47.241Z,83.25
2022-10-05T07:08:32.541Z,82.51
2022-10-05T07:11:19.719Z,81.52
2022-10-05T07:14:08.336Z,81.52
2022-10-05T07:16:50.431Z,82.34
2022-10-05T07:19:29.420Z,82.84
2022-10-05T07:22:05.105Z,81.74
2022-10-05T07:24:36.836Z,81.47
2022-10-05T07:27:16.922Z,81.22
2022-10-05T07:29:52.796Z,82.03
2022-10-05T07:32:27.161Z,81.73
2022-10-05T07:35:12.734Z,81.52
2022-10-05T07:37:43.464Z,80.38
2022-10-05T07:40:25.696Z,80.50
2022-10-05T07:42:55.504Z,80.90
2022-10-05T07:45:27.238Z,80.87
2022-10-05T07:47:57.361Z,80.13
2022-10-05T07:50:44.712Z,80.09
2022-10-05T07:53:37.838Z,79.88
2022-10-05T07:56:19.999Z,81.09
2022-10-05T07:58:51.738Z,80.44
2022-10-05T08:01:26.853Z,80.52
2022-10-05T08:04:22.901Z,79.55
2022-10-05T08:06:55.778Z,80.33
2022-10-05T08:09:45.571Z,80.87
2022-10-05T08:12:40.372Z,80.64
2022-10-05T08:15:21.192Z,80.24
2022-10-05T08:17:59.915Z,81.16
2022-10-05T08:20:45.410Z,77.93
2022-10-05T08:23:54.554Z,79.02
2022-10-05T08:26:31.073Z,77.07
2022-10-05T08:29:20.508Z,77.88
2022-10-05T08:31:51.184Z,75.79
2022-10-05T08:34:24.819Z,75.89
2022-10-05T08:37:08.966Z,76.46
2022-10-05T08:39:58.841Z,77.00
2022-10-05T08:42:38.529Z,76.05
2022-10-05T08:45:08.084Z,75.15
2022-10-05T08:47:46.639Z,76.27
2022-10-05T08:50:25.523Z,76.94
2022-10-05T08:53:13.619Z,76.80
2022-10-05T08:55:51.809Z,78.14
2022-10-05T08:58:25.902Z,77.74
2022-10-05T09:00:55.312Z,77.73
2022-10-05T09:03:32.153Z,77.26
2022-10-05T09:06:37.985Z,76.24
2022-10-05T09:09:41.644Z,76.08
2022-10-05T09:12:31.585Z,76.65
2022-10-05T09:15:29.399Z,76.43
2022-10-05T09:18:33.611Z,76.35
2022-10-05T09:21:29.630Z,76.01
2022-10-05T09:24:47.603Z,76.04
2022-10-05T09:27:18.808Z,76.96
2022-10-05T09:30:00.817Z,76.60
2022-10-05T09:32:49.165Z,76.05
2022-10-05T09:35:43.131Z,75.81
2022-10-05T09:38:28.382Z,76.28
2022-10-05T09:41:22.674Z,75.88
2022-10-05T09:44:11.041Z,77.03
2022-10-05T09:47:15.321Z,77.70
2022-10-05T09:49:57.305Z,77.67
2022-10-05T09:53:04.423Z,77.10
2022-10-05T09:55:45.642Z,76.30
2022-10-05T09:58:31.103Z,76.42
2022-10-05T10:01:32.510Z,75.40
2022-10-05T10:04:39.250Z,75.96
2022-10-05T10:07:05.925Z,75.52
2022-10-05T10:10:04.636Z,74.74
2022-10-05T10:12:37.120Z,74.22
2022-10-05T10:15:31.620Z,74.66
2022-10-05T10:18:04.226Z,76.22
2022-10-05T10:20:33.917Z,76.14
2022-10-05T10:23:09.915Z,76.11
2022-10-05T10:25:52.241Z,73.75
2022-10-05T10:28:28.138Z,72.79
2022-10-05T10:31:33.305Z,72.18
2022-10-05T10:34:44.141Z,70.70
2022-10-05T10:37:49.523Z,71.36
2022-10-05T10:40:32.446Z,68.89
2022-10-05T10:43:22.370Z,68.38
2022-10-05T10:45:59.995Z,67.86
2022-10-05T10:48:29.776Z,67.79
2022-10-05T10:51:14.630Z,67.54
2022-10-05T10:54:18.444Z,69.84
2022-10-05T10:56:58.192Z,68.31
2022-10-05T10:59:53.201Z,68.22
2022-10-05T11:02:36.329Z,65.67
2022-10-05T11:05:15.301Z,67.15
2022-10-05T11:07:50.992Z,66.44
2022-10-05T11:10:42.069Z,64.36
2022-10-05T11:13:23.258Z,64.71
2022-10-05T11:15:56.016Z,62.95
2022-10-05T11:18:28.643Z,65.01
2022-10-05T11:21:10.513Z,64.31
2022-10-05T11:24:31.480Z,62.09
2022-10-05T11:27:10.224Z,63.69
2022-10-05T11:29:59.606Z,61.33
2022-10-05T11:32:44.591Z,62.20
2022-10-05T11:35:24.504Z,63.34
2022-10-05T11:38:30.006Z,62.25
2022-10-05T11:41:20.472Z,64.53
2022-10-05T11:44:10.360Z,63.72
2022-10-05T11:46:47.734Z,62.45
2022-10-05T11:49:32.856Z,63.81
2022-10-05T11:52:17.359Z,61.59
2022-10-05T11:55:12.662Z,61.64
2022-10-05T11:57:50.439Z,61.81
2022-10-05T12:00:22.601Z,61.98
2022-10-05T12:03:03.464Z,63.13
2022-10-05T12:05:48.800Z,62.68
2022-10-05T12:08:15.588Z,62.37
2022-10-05T12:10:42.112Z,63.16
2022-10-05T12:13:08.818Z,63.75
2022-10-05T12:15:41.634Z,60.93
2022-10-05T12:18:19.609Z,61.42
2022-10-05T12:21:07.668Z,61.10
2022-10-05T12:23:39.825Z,60.61
2022-10-05T12:26:10.721Z,60.20
2022-10-05T12:29:01.057Z,61.48
2022-10-05T12:31:49.640Z,61.03
2022-10-05T12:34:22.521Z,60.15
2022-10-05T12:37:05.377Z,61.08
2022-10-05T12:39:53.110Z,62.08
2022-10-05T12:42:23.441Z,60.83
2022-10-05T12:44:51.664Z,59.14
2022-10-05T12:47:32.534Z,59.08
2022-10-05T12:50:42.658Z,58.56
2022-10-05T12:53:48.046Z,57.61
2022-10-05T12:56:42.867Z,56.98
2022-10-05T12:59:23.255Z,57.02
2022-10-05T13:02:22.752Z,56.08
2022-10-05T13:05:03.091Z,55.88
2022-10-05T13:08:07.303Z,56.79
2022-10-05T13:11:17.680Z,57.24
2022-10-05T13:13:53.534Z,56.68
2022-10-05T13:16:27.728Z,56.41
2022-10-05T13:19:15.394Z,57.70
2022-10-05T13:22:23.623Z,57.93
2022-10-05T13:25:09.424Z,59.58
2022-10-05T13:27:51.397Z,59.37
2022-10-05T13:30:20.549Z,58.76
2022-10-05T13:33:16.467Z,57.94
2022-10-05T13:35:58.507Z,59.30
2022-10-05T13:38:45.406Z,58.92
2022-10-05T13:41:23.983Z,58.09
2022-10-05T13:44:26.144Z,58.97
2022-10-05T13:47:03.312Z,59.80
2022-10-05T13:49:51.509Z,58.53
2022-10-05T13:52:27.404Z,59.26
2022-10-05T13:55:31.085Z,59.77
2022-10-05T13:58:27.711Z,60.12
2022-10-05T14:00:58.845Z,60.03
2022-10-05T14:03:30.556Z,60.17
2022-10-05T14:06:00.780Z,59.07
2022-10-05T14:08:32.042Z,57.82
2022-10-05T14:10:59.663Z,57.22
2022-10-05T14:13:45.574Z,56.66
2022-10-05T14:16:12.910Z,57.28
2022-10-05T14:19:09.344Z,57.04
2022-10-05T14:22:13.253Z,57.93
2022-10-05T14:24:53.460Z,57.51
2022-10-05T14:27:27.534Z,57.97
2022-10-05T14:30:12.915Z,57.07
2022-10-05T14:32:48.169Z,57.53
2022-10-05T14:35:20.069Z,56.62
2022-10-05T14:37:50.381Z,57.64
2022-10-05T14:40:31.312Z,57.65
2022-10-05T14:43:01.474Z,56.68
2022-10-05T14:45:28.836Z,56.86
2022-10-05T14:48:09.400Z,56.39
2022-10-05T14:50:51.694Z,57.76
2022-10-05T14:53:21.807Z,57.04
2022-10-05T14:56:14.540Z,57.67
2022-10-05T14:58:53.749Z,57.46
2022-10-05T15:01:26.265Z,56.83
2022-10-05T15:04:38.417Z,57.56
2022-10-05T15:07:24.004Z,58.37
2022-10-05T15:10:07.361Z,58.37
2022-10-05T15:12:46.523Z,56.99
2022-10-05T15:15:31.667Z,56.49
2022-10-05T15:18:05.518Z,58.11
2022-10-05T15:20:46.277Z,58.09
2022-10-05T15:23:37.913Z,57.68
2022-10-05T15:26:32.439Z,57.33
2022-10-05T15:29:09.595Z,57.16
2022-10-05T15:31:45.571Z,57.15
2022-10-05T15:34:44.618Z,58.75
2022-10-05T15:37:21.783Z,58.71
2022-10-05T15:39:56.155Z,56.35
2022-10-05T15:42:34.232Z,57.39
2022-10-05T15:45:22.990Z,56.97
2022-10-05T15:48:14.790Z,57.82
2022-10-05T15:51:00.132Z,57.59
2022-10-05T15:53:26.903Z,57.77
2022-10-05T15:56:04.355Z,57.91
2022-10-05T15:58:44.659Z,58.56
2022-10-05T16:01:12.636Z,59.00
2022-10-05T16:03:51.348Z,58.81
2022-10-05T16:06:45.329Z,59.01
2022-10-05T16:09:36.352Z,58.10
2022-10-05T16:12:14.147Z,57.93
2022-10-05T16:15:17.338Z,57.52
2022-10-05T16:17:50.129Z,57.50
2022-10-05T16:20:56.830Z,58.70
2022-10-05T16:23:26.639Z,58.55
2022-10-05T16:25:57.452Z,58.83
2022-10-05T16:28:34.308Z,58.80
2022-10-05T16:31:10.293Z,58.73
2022-10-05T16:34:02.618Z,59.33
2022-10-05T16:36:44.560Z,60.12
2022-10-05T16:39:14.230Z,61.41
2022-10-05T16:42:09.086Z,61.65
2022-10-05T16:44:49.483Z,61.85
2022-10-05T16:47:34.695Z,62.21
2022-10-05T16:50:30.463Z,62.42
2022-10-05T16:53:22.831Z,62.70
2022-10-05T16:55:56.803Z,62.51
2022-10-05T16:58:51.297Z,61.62
2022-10-05T17:01:51.026Z,61.76
2022-10-05T17:04:23.905Z,61.60
2022-10-05T17:07:36.711Z,61.47
2022-10-05T17:10:24.778Z,61.64
2022-10-05T17:13:06.280Z,62.48
2022-10-05T17:15:37.151Z,63.63
2022-10-05T17:18:23.038Z,65.65
2022-10-05T17:21:11.303Z,65.13
2022-10-05T17:23:53.550Z,66.14
2022-10-05T17:26:23.226Z,66.86
2022-10-05T17:29:12.503Z,68.01
2022-10-05T17:32:17.945Z,68.22
2022-10-05T17:34:59.543Z,68.30
2022-10-05T17:38:09.523Z,68.20
2022-10-05T17:40:38.923Z,70.01
2022-10-05T17:43:24.355Z,69.73
2022-10-05T17:45:54.630Z,69.35
2022-10-05T17:48:43.307Z,70.07
2022-10-05T17:51:33.478Z,70.63
2022-10-05T17:54:30.998Z,70.67
2022-10-05T17:56:57.883Z,70.42
2022-10-05T17:59:44.163Z,69.37
2022-10-05T18:02:25.483Z,69.58
2022-10-05T18:05:04.670Z,70.10
2022-10-05T18:07:33.891Z,70.04
2022-10-05T18:10:12.820Z,70.10
2022-10-05T18:12:47.565Z,70.74
2022-10-05T18:15:36.327Z,71.05
2022-10-05T18:18:40.517Z,70.67
2022-10-05T18:21:13.473Z,70.02
2022-10-05T18:24:00.329Z,69.22
2022-10-05T18:26:31.127Z,68.80
2022-10-05T18:29:19.481Z,68.24
2022-10-05T18:31:55.978Z,68.54
2022-10-05T18:35:08.975Z,67.96
2022-10-05T18:37:57.338Z,69.02
2022-10-05T18:40:33.145Z,69.46
2022-10-05T18:43:14.693Z,68.84
2022-10-05T18:46:05.193Z,69.77
2022-10-05T18:48:50.120Z,70.50
2022-10-05T18:51:55.107Z,70.93
2022-10-05T18:54:43.204Z,70.87
2022-10-05T18:57:24.868Z,71.43
2022-10-05T18:59:57.191Z,72.28
2022-10-05T19:02:36.818Z,74.10
2022-10-05T19:05:47.068Z,73.62
2022-10-05T19:08:38.786Z,73.72
2022-10-05T19:11:29.058Z,72.52
2022-10-05T19:14:10.677Z,72.01
2022-10-05T19:17:04.037Z,71.92
2022-10-05T19:19:54.632Z,71.86
2022-10-05T19:22:30.296Z,72.02
2022-10-05T19:24:56.929Z,71.01
2022-10-05T19:27:46.787Z,71.19
2022-10-05T19:30:43.274Z,71.41
2022-10-05T19:33:28.206Z,71.50
2022-10-05T19:36:24.382Z,71.52
2022-10-05T19:39:07.487Z,71.31
2022-10-05T19:41:53.079Z,72.77
2022-10-05T19:44:50.222Z,74.69
2022-10-05T19:47:47.528Z,73.69
2022-10-05T19:50:23.758Z,74.27
2022-10-05T19:52:56.336Z,73.24
2022-10-05T19:55:22.933Z,73.47
2022-10-05T19:57:54.789Z,73.64
2022-10-05T20:00:27.356Z,73.59
2022-10-05T20:03:19.950Z,73.78
2022-10-05T20:05:46.681Z,73.59
2022-10-05T20:08:18.649Z,72.80
2022-10-05T20:11:03.463Z,73.03
2022-10-05T20:13:30.192Z,73.36
2022-10-05T20:16:09.937Z,74.14
2022-10-05T20:18:45.676Z,73.58
2022-10-05T20:21:47.682Z,73.08
2022-10-05T20:24:23.121Z,72.73
2022-10-05T20:26:51.792Z,73.86
2022-10-05T20:29:18.361Z,73.71
2022-10-05T20:31:45.109Z,72.98
2022-10-05T20:34:11.883Z,73.81
2022-10-05T20:36:38.445Z,73.17
2022-10-05T20:39:04.989Z,73.51
2022-10-05T20:41:31.913Z,73.46
2022-10-05T20:43:58.545Z,73.45
2022-10-05T20:46:25.257Z,72.86
2022-10-05T20:48:52.074Z,73.47
2022-10-05T20:51:18.866Z,73.95
2022-10-05T20:53:45.427Z,72.86
2022-10-05T20:56:12.499Z,73.70
2022-10-05T20:58:39.075Z,73.01
2022-10-05T21:01:05.935Z,72.79
2022-10-05T21:03:32.627Z,72.63
2022-10-05T21:05:59.275Z,72.83
2022-10-05T21:08:26.195Z,72.58
2022-10-05T21:10:53.221Z,73.40
2022-10-05T21:13:19.811Z,73.25
2022-10-05T21:15:46.461Z,73.16
2022-10-05T21:18:13.203Z,72.89
2022-10-05T21:20:39.846Z,73.94
2022-10-05T21:23:06.455Z,74.24
2022-10-05T21:25:33.354Z,73.97
2022-10-05T21:27:59.929Z,73.01
2022-10-05T21:30:26.575Z,72.95
2022-10-05T21:32:56.348Z,72.82
2022-10-05T21:35:23.169Z,72.79
2022-10-05T21:37:49.890Z,72.69
2022-10-05T21:40:16.781Z,73.44
2022-10-05T21:42:43.426Z,72.85
2022-10-05T21:45:10.279Z,72.66
2022-10-05T21:47:38.384Z,71.93
2022-10-05T21:50:05.572Z,71.94
2022-10-05T21:52:33.580Z,71.50
2022-10-05T21:55:00.361Z,71.17
2022-10-05T21:57:26.945Z,71.00
2022-10-05T21:59:53.721Z,71.07
2022-10-05T22:02:20.573Z,71.03
2022-10-05T22:04:47.318Z,71.97
2022-10-05T22:07:16.906Z,71.37
2022-10-05T22:09:43.636Z,71.49
2022-10-05T22:12:10.220Z,71.04
2022-10-05T22:14:36.863Z,71.35
2022-10-05T22:17:04.127Z,71.45
2022-10-05T22:19:30.994Z,71.70
2022-10-05T22:21:57.570Z,71.51
2022-10-05T22:24:24.339Z,71.78
2022-10-05T22:26:50.979Z,70.98
2022-10-05T22:29:18.487Z,71.02
2022-10-05T22:31:46.214Z,70.95
2022-10-05T22:34:12.950Z,70.92
2022-10-05T22:36:39.653Z,70.74
2022-10-05T22:39:06.386Z,70.85
2022-10-05T22:41:33.135Z,70.24
2022-10-05T22:44:00.527Z,70.82
2022-10-05T22:46:27.202Z,71.60
2022-10-05T22:48:53.953Z,71.31
2022-10-05T22:51:20.578Z,71.20
2022-10-05T22:53:47.242Z,70.85
2022-10-05T22:56:14.451Z,70.97
2022-10-05T22:58:42.247Z,70.97
2022-10-05T23:01:15.793Z,70.57
2022-10-05T23:03:43.804Z,70.60
2022-10-05T23:06:17.292Z,70.95
2022-10-05T23:08:44.702Z,71.63
2022-10-05T23:11:20.185Z,72.57
2022-10-05T23:13:46.945Z,72.10
2022-10-05T23:16:15.908Z,71.68
2022-10-05T23:18:44.107Z,71.72
2022-10-05T23:21:11.584Z,71.58
2022-10-05T23:23:40.737Z,72.39
2022-10-05T23:26:09.564Z,71.90
2022-10-05T23:28:38.498Z,72.68
2022-10-05T23:31:07.395Z,73.14
2022-10-05T23:33:35.437Z,72.63
2022-10-05T23:36:03.778Z,73.00
2022-10-05T23:38:31.001Z,73.43
2022-10-05T23:40:58.171Z,73.59
2022-10-05T23:43:25.229Z,73.99
2022-10-05T23:45:51.956Z,73.23
2022-10-05T23:48:19.143Z,73.61
2022-10-05T23:50:46.495Z,73.30
2022-10-05T23:53:13.974Z,73.73
2022-10-05T23:55:40.746Z,73.39
2022-10-05T23:58:08.205Z,73.91
